Time;durP1;ratioP1;P1;durP2;ratioP2;P2;SDS_P1;SDS_P2;PMS_P1;PMS_P2;Temp;Humidity;BMP_temperature;BMP_pressure;BME280_temperature;BME280_humidity;BME280_pressure;Samples;Min_cycle;Max_cycle;Signal;HPM_P1;HPM_P2
2022/09/25 00:00:50;;;;;;;4.60;4.13;;;;;;;;;;5114226;28;20185;-72
2022/09/25 00:03:16;;;;;;;4.27;4.00;;;;;;;;;;5114420;28;20189;-72
2022/09/25 00:05:44;;;;;;;13.13;3.37;;;;;;;-142.65;87.94;50162.81;5114093;28;20186;-72
2022/09/25 00:08:12;;;;;;;3.67;3.37;;;;;;;-142.65;87.88;50170.78;5114080;28;20188;-72
2022/09/25 00:10:50;;;;;;;3.57;3.00;;;;;;;-142.65;87.77;50162.81;5114062;28;20189;-72
2022/09/25 00:13:19;;;;;;;3.70;3.33;;;;;;;-142.65;87.74;50164.81;5114110;28;20193;-72
2022/09/25 00:15:54;;;;;;;5.40;2.77;;;;;;;;;;5113850;28;20209;-72
2022/09/25 00:21:11;;;;;;;3.70;3.53;;;;;;;;;;5113895;28;20177;-72
2022/09/25 00:23:38;;;;;;;4.37;4.30;;;;;;;-142.65;88.11;50162.81;5113872;28;20192;-72
2022/09/25 00:26:06;;;;;;;4.53;4.33;;;;;;;-142.65;88.23;50168.78;5113856;28;20551;-71
2022/09/25 00:28:35;;;;;;;4.60;4.33;;;;;;;-142.65;88.28;50170.78;5113734;28;20205;-71
2022/09/25 00:31:04;;;;;;;4.27;4.07;;;;;;;-142.65;88.50;50168.78;5114585;28;20188;-71
2022/09/25 00:33:31;;;;;;;5.43;3.73;;;;;;;-142.65;88.54;50168.78;5113765;28;20208;-71
2022/09/25 00:36:06;;;;;;;3.97;3.97;;;;;;;-142.65;88.74;50172.78;5113929;28;20197;-71
2022/09/25 00:38:35;;;;;;;3.90;3.80;;;;;;;-142.65;88.96;50170.78;5113890;28;20220;-71
2022/09/25 00:41:04;;;;;;;3.60;3.50;;;;;;;-142.65;88.98;50170.78;5113671;28;20185;-71
2022/09/25 00:43:49;;;;;;;4.07;3.77;;;;;;;-142.65;89.08;50168.78;5114195;28;20644;-72
2022/09/25 00:46:37;;;;;;;4.07;3.87;;;;;;;-142.65;89.09;50170.78;5114192;28;20173;-72
2022/09/25 00:49:12;;;;;;;3.80;3.60;;;;;;;-142.65;89.12;50168.78;5114161;28;20209;-72
2022/09/25 00:51:44;;;;;;;4.17;3.97;;;;;;;-142.65;89.07;50172.78;5113610;28;20623;-72
2022/09/25 00:54:20;;;;;;;6.23;4.87;;;;;;;-142.65;89.30;50170.78;5114155;28;20517;-72
2022/09/25 00:56:47;;;;;;;4.40;4.20;;;;;;;;;;5113731;28;20196;-72
2022/09/25 00:59:18;;;;;;;5.93;4.40;;;;;;;-142.65;89.43;50170.78;5114009;28;20816;-72
2022/09/25 01:01:45;;;;;;;7.00;4.60;;;;;;;-142.65;89.70;50170.78;5114111;28;20180;-72
2022/09/25 01:04:13;;;;;;;4.07;3.87;;;;;;;-142.65;89.61;50170.78;5114079;28;20264;-72
2022/09/25 01:06:40;;;;;;;3.83;3.73;;;;;;;;;;5117714;28;20196;-72
2022/09/25 01:09:06;;;;;;;4.27;3.97;;;;;;;-142.65;89.82;50170.78;5117505;28;20574;-72
2022/09/25 01:11:33;;;;;;;4.27;3.80;;;;;;;-142.65;89.87;50168.78;5117662;28;20549;-72
2022/09/25 01:14:02;;;;;;;9.67;3.70;;;;;;;-142.65;89.78;50168.78;5117540;28;20188;-72
2022/09/25 01:16:28;;;;;;;9.40;3.10;;;;;;;-142.65;89.68;50174.75;5117445;28;20594;-72
2022/09/25 01:19:13;;;;;;;2.53;2.43;;;;;;;;;;5117267;28;20212;-72
2022/09/25 01:21:47;;;;;;;3.37;3.17;;;;;;;-142.65;89.85;50170.78;5117249;28;20184;-72
2022/09/25 01:24:19;;;;;;;3.60;2.43;;;;;;;;;;5117572;28;20626;-72
2022/09/25 01:27:15;;;;;;;2.57;2.47;;;;;;;-142.65;89.86;50164.81;5117409;28;20184;-72
2022/09/25 01:29:51;;;;;;;3.00;2.67;;;;;;;-142.65;90.06;50170.78;5117092;28;20216;-72
2022/09/25 01:32:26;;;;;;;2.90;2.63;;;;;;;-142.65;90.09;50164.81;5117385;28;20173;-72
2022/09/25 01:35:30;;;;;;;3.83;2.67;;;;;;;-142.65;89.79;50170.78;5117359;28;20173;-71
2022/09/25 01:38:01;;;;;;;2.40;2.30;;;;;;;;;;5116867;28;20185;-72
2022/09/25 01:40:54;;;;;;;2.80;2.70;;;;;;;-142.65;90.02;50170.78;5117215;28;20182;-72
2022/09/25 01:43:43;;;;;;;4.37;2.80;;;;;;;-142.65;90.15;50162.81;5116910;28;20166;-72
2022/09/25 01:46:22;;;;;;;2.60;2.23;;;;;;;-142.65;90.25;50172.78;5117135;28;20174;-72
2022/09/25 01:48:56;;;;;;;2.80;2.30;;;;;;;-142.65;90.14;50170.78;5117259;28;20209;-72
2022/09/25 01:51:28;;;;;;;5.50;2.73;;;;;;;-142.65;90.23;50164.81;5117317;28;20177;-72
2022/09/25 01:53:57;;;;;;;2.50;2.30;;;;;;;;;;5116985;28;20170;-72
2022/09/25 01:56:31;;;;;;;2.93;2.80;;;;;;;-142.65;90.36;50174.75;5116889;28;20201;-72
2022/09/25 01:59:06;;;;;;;5.13;2.10;;;;;;;-142.65;90.32;50174.75;5116528;28;20295;-72
2022/09/25 02:01:34;;;;;;;8.50;2.07;;;;;;;;;;5116840;28;20170;-72
2022/09/25 02:04:09;;;;;;;2.47;2.37;;;;;;;-142.65;90.16;50162.81;5116491;28;20226;-72
2022/09/25 02:06:37;;;;;;;2.97;2.77;;;;;;;-142.65;90.19;50174.75;5116726;28;20173;-72
2022/09/25 02:09:16;;;;;;;3.00;2.63;;;;;;;-142.65;90.33;50168.78;5116624;28;20209;-71
2022/09/25 02:11:46;;;;;;;3.40;2.47;;;;;;;;;;5116547;28;20178;-72
2022/09/25 02:14:28;;;;;;;8.53;2.30;;;;;;;-142.65;90.08;50174.75;5117036;28;20616;-72
2022/09/25 02:16:56;;;;;;;3.17;2.00;;;;;;;;;;5115433;28;20204;-72
2022/09/25 02:22:13;;;;;;;1.70;1.70;;;;;;;;;;5116426;28;20174;-71
2022/09/25 02:24:46;;;;;;;3.17;2.13;;;;;;;;;;5116042;28;20189;-71
2022/09/25 02:27:14;;;;;;;3.00;2.20;;;;;;;-142.65;90.12;50168.78;5116371;28;20172;-71
2022/09/25 02:29:41;;;;;;;3.10;2.53;;;;;;;-142.65;90.13;50164.81;5116168;28;20205;-71
2022/09/25 02:32:11;;;;;;;2.23;2.17;;;;;;;-142.65;90.05;50170.78;5116208;28;20185;-71
2022/09/25 02:34:38;;;;;;;2.40;2.30;;;;;;;-142.65;89.88;50174.75;5116165;28;20195;-71
2022/09/25 02:37:09;;;;;;;2.63;2.60;;;;;;;;;;5116311;28;20224;-71
2022/09/25 02:39:35;;;;;;;3.33;2.50;;;;;;;-142.65;89.87;50168.78;5115850;28;20212;-71
2022/09/25 02:42:20;;;;;;;1.83;1.73;;;;;;;;;;5115696;28;20193;-71
2022/09/25 02:45:08;;;;;;;2.20;1.90;;;;;;;-142.65;89.96;50172.78;5115671;28;20191;-72
2022/09/25 02:47:54;;;;;;;6.87;2.07;;;;;;;-142.65;90.06;50174.75;5115653;28;20187;-71
2022/09/25 02:50:32;;;;;;;2.03;2.03;;;;;;;-142.65;90.25;50170.78;5115834;28;20643;-71
2022/09/25 02:53:12;;;;;;;2.27;2.27;;;;;;;;;;5115556;28;20177;-72
2022/09/25 02:55:38;;;;;;;1.70;1.70;;;;;;;;;;5115740;28;20175;-72
2022/09/25 02:58:19;;;;;;;5.97;2.73;;;;;;;-142.65;90.40;50172.78;5115386;28;20189;-74
2022/09/25 03:00:49;;;;;;;1.77;1.67;;;;;;;-142.65;90.37;50164.81;5115977;28;20669;-72
2022/09/25 03:03:18;;;;;;;2.00;1.90;;;;;;;-142.65;90.38;50172.78;5115667;28;20187;-72
2022/09/25 03:05:45;;;;;;;6.87;2.37;;;;;;;;;;5115842;28;20668;-72
2022/09/25 03:10:58;;;;;;;4.27;2.13;;;;;;;;;;5115444;28;20181;-72
2022/09/25 03:13:26;;;;;;;2.30;2.27;;;;;;;;;;5114948;28;20207;-72
2022/09/25 03:15:59;;;;;;;3.23;2.57;;;;;;;-142.65;90.46;50170.78;5114963;28;20181;-72
2022/09/25 03:18:27;;;;;;;4.57;2.50;;;;;;;;;;5115274;28;20212;-72
2022/09/25 03:20:53;;;;;;;2.23;2.13;;;;;;;-142.65;90.57;50170.78;5115244;28;20196;-72
2022/09/25 03:23:20;;;;;;;4.87;2.33;;;;;;;-142.65;90.49;50168.78;5114988;28;20532;-71
2022/09/25 03:25:46;;;;;;;3.10;2.13;;;;;;;;;;5114869;28;20182;-71
2022/09/25 03:28:16;;;;;;;4.17;2.50;;;;;;;-142.65;90.55;50172.78;5115034;28;20288;-72
2022/09/25 03:30:43;;;;;;;2.80;2.70;;;;;;;-142.65;90.61;50170.78;5114784;28;20186;-72
2022/09/25 03:33:11;;;;;;;3.90;2.90;;;;;;;-142.65;90.54;50178.75;5114752;28;20185;-72
2022/09/25 03:35:38;;;;;;;3.77;3.23;;;;;;;-142.65;90.30;50164.81;5114622;28;20191;-72
2022/09/25 03:38:09;;;;;;;2.80;2.60;;;;;;;-142.65;90.29;50174.75;5114480;28;20217;-71
2022/09/25 03:40:35;;;;;;;4.53;2.00;;;;;;;-142.65;90.33;50170.78;5114869;28;20186;-71
2022/09/25 03:43:02;;;;;;;2.50;2.23;;;;;;;-142.65;90.39;50174.75;5114871;28;20176;-71
2022/09/25 03:45:27;;;;;;;2.73;2.63;;;;;;;;;;5114539;28;20161;-71
2022/09/25 03:47:53;;;;;;;3.17;2.50;;;;;;;-142.65;90.09;50168.78;5114490;28;20253;-71
2022/09/25 03:50:20;;;;;;;1.97;1.90;;;;;;;;;;5114381;28;20679;-71
2022/09/25 03:52:46;;;;;;;2.30;2.30;;;;;;;-142.65;90.05;50172.78;5114688;28;20538;-71
2022/09/25 03:55:13;;;;;;;2.27;2.00;;;;;;;;;;5114350;28;20642;-72
2022/09/25 03:57:40;;;;;;;2.47;2.40;;;;;;;;;;5114210;28;20201;-72
2022/09/25 04:00:07;;;;;;;4.73;2.53;;;;;;;-142.65;89.76;50170.78;5114182;28;20203;-72
2022/09/25 04:02:39;;;;;;;3.30;2.80;;;;;;;-142.65;89.63;50168.78;5114503;28;20173;-72
2022/09/25 04:05:06;;;;;;;3.07;2.30;;;;;;;;;;5114712;28;20196;-72
2022/09/25 04:07:32;;;;;;;3.73;2.53;;;;;;;-142.65;89.25;50168.78;5114192;28;20177;-72
2022/09/25 04:09:59;;;;;;;3.10;2.47;;;;;;;-142.65;89.50;50168.78;5114401;28;20601;-72
2022/09/25 04:12:25;;;;;;;2.20;2.17;;;;;;;;;;5114084;28;20288;-72
2022/09/25 04:14:51;;;;;;;1.97;1.90;;;;;;;-142.65;89.58;50168.78;5114598;28;20196;-72
2022/09/25 04:17:18;;;;;;;2.17;1.97;;;;;;;-142.65;89.48;50174.75;5114095;28;20202;-72
2022/09/25 04:19:45;;;;;;;8.50;2.17;;;;;;;-142.65;89.44;50170.78;5114108;28;20220;-71
2022/09/25 04:22:12;;;;;;;5.10;1.90;;;;;;;-142.65;89.36;50170.78;5114058;28;20181;-71
2022/09/25 04:24:47;;;;;;;2.93;2.70;;;;;;;-142.65;89.20;50168.78;5114371;28;20193;-71
2022/09/25 04:27:20;;;;;;;2.40;2.17;;;;;;;-142.65;88.96;50170.78;5114264;28;20169;-71
2022/09/25 04:29:48;;;;;;;1.87;1.87;;;;;;;-142.65;88.84;50172.78;5113861;28;20571;-72
2022/09/25 04:35:01;;;;;;;2.50;2.40;;;;;;;-142.65;88.73;50176.75;5114315;28;20173;-72
2022/09/25 04:37:27;;;;;;;3.43;2.60;;;;;;;-142.65;88.68;50168.78;5113680;28;20283;-72
2022/09/25 04:39:55;;;;;;;4.50;2.07;;;;;;;-142.65;88.83;50176.75;5113097;28;20703;-72
2022/09/25 04:42:23;;;;;;;2.10;2.10;;;;;;;-142.65;88.56;50170.78;5113989;28;20651;-72
2022/09/25 04:44:54;;;;;;;3.93;2.47;;;;;;;-142.65;88.55;50170.78;5113906;28;20676;-72
2022/09/25 04:47:22;;;;;;;3.07;2.33;;;;;;;-142.65;88.63;50170.78;5114009;28;20181;-72
2022/09/25 04:49:48;;;;;;;2.90;2.20;;;;;;;-142.65;88.49;50168.78;5113564;28;20213;-72
2022/09/25 04:52:16;;;;;;;2.60;2.27;;;;;;;-142.65;88.53;50164.81;5113611;28;20193;-72
2022/09/25 04:54:43;;;;;;;2.33;2.17;;;;;;;-142.65;88.50;50168.78;5114115;28;20189;-72
2022/09/25 04:57:14;;;;;;;2.10;2.00;;;;;;;-142.65;88.53;50172.78;5113375;28;20211;-72
2022/09/25 05:00:01;;;;;;;4.00;2.33;;;;;;;-142.65;88.46;50172.78;5113452;28;20599;-72
2022/09/25 05:02:27;;;;;;;2.20;2.00;;;;;;;-142.65;88.53;50176.75;5113464;28;20185;-72
2022/09/25 05:04:54;;;;;;;2.43;2.30;;;;;;;-142.65;88.37;50162.81;5113525;28;20589;-72
2022/09/25 05:07:20;;;;;;;2.50;2.33;;;;;;;-142.65;88.43;50170.78;5113739;28;20192;-72
2022/09/25 05:09:47;;;;;;;2.93;2.83;;;;;;;-142.65;88.20;50168.78;5113629;28;20216;-72
2022/09/25 05:12:14;;;;;;;2.97;2.77;;;;;;;-142.65;88.22;50176.75;5113551;28;20565;-72
2022/09/25 05:14:41;;;;;;;2.83;2.53;;;;;;;-142.65;88.22;50164.81;5113762;28;20542;-72
2022/09/25 05:17:10;;;;;;;2.73;2.63;;;;;;;-142.65;88.23;50168.78;5113853;28;20583;-72
2022/09/25 05:19:37;;;;;;;2.60;2.50;;;;;;;-142.65;88.25;50168.78;5113300;28;20612;-72
2022/09/25 05:22:04;;;;;;;3.37;2.70;;;;;;;-142.65;88.31;50168.78;5113370;28;20655;-72
2022/09/25 05:24:30;;;;;;;4.43;3.10;;;;;;;-142.65;88.14;50168.78;5113308;28;20193;-72
2022/09/25 05:26:56;;;;;;;5.27;3.20;;;;;;;-142.65;88.22;50172.78;5113258;28;20189;-72
2022/09/25 05:29:23;;;;;;;3.07;2.70;;;;;;;;;;5113437;28;20208;-72
2022/09/25 05:31:49;;;;;;;4.97;3.43;;;;;;;;;;5113202;28;20194;-72
2022/09/25 05:34:15;;;;;;;2.97;2.77;;;;;;;-142.65;88.53;50170.78;5113202;28;20204;-72
2022/09/25 05:36:42;;;;;;;3.13;3.07;;;;;;;-142.65;88.50;50170.78;5113115;28;20205;-72
2022/09/25 05:39:09;;;;;;;6.03;3.00;;;;;;;;;;5113130;28;20209;-72
2022/09/25 05:41:39;;;;;;;3.40;3.17;;;;;;;-142.65;88.69;50168.78;5113176;28;20223;-72
2022/09/25 05:44:08;;;;;;;3.40;3.20;;;;;;;-142.65;88.74;50174.75;5113657;28;20185;-72
2022/09/25 05:46:35;;;;;;;3.50;3.30;;;;;;;-142.65;88.82;50172.78;5113106;28;20197;-72
2022/09/25 05:49:03;;;;;;;3.57;3.30;;;;;;;-142.65;88.85;50168.78;5113027;28;20213;-72
2022/09/25 05:51:30;;;;;;;3.17;3.07;;;;;;;-142.65;88.96;50168.78;5113038;28;20199;-72
2022/09/25 05:53:56;;;;;;;5.30;3.13;;;;;;;;;;5117329;28;20196;-72
2022/09/25 05:56:23;;;;;;;4.27;3.60;;;;;;;;;;5117118;28;20644;-72
2022/09/25 05:58:51;;;;;;;3.30;2.73;;;;;;;-142.65;89.06;50162.81;5116773;28;20219;-73
2022/09/25 06:01:18;;;;;;;4.57;3.90;;;;;;;-142.65;89.08;50168.78;5116800;28;20189;-73
2022/09/25 06:03:45;;;;;;;3.50;3.23;;;;;;;-142.65;89.13;50162.81;5117053;28;20189;-73
2022/09/25 06:06:11;;;;;;;9.43;3.30;;;;;;;-142.65;89.21;50168.78;5116720;28;20227;-72
2022/09/25 06:08:38;;;;;;;3.57;3.27;;;;;;;-142.65;89.06;50168.78;5116343;28;20201;-72
2022/09/25 06:11:05;;;;;;;4.57;3.70;;;;;;;;;;5116644;28;20178;-72
2022/09/25 06:13:31;;;;;;;3.40;3.30;;;;;;;-142.65;89.33;50170.78;5116457;28;20189;-72
2022/09/25 06:15:58;;;;;;;4.07;3.80;;;;;;;-142.65;89.52;50172.78;5116515;28;20648;-72
2022/09/25 06:18:25;;;;;;;4.43;4.23;;;;;;;-142.65;89.33;50164.81;5116015;28;20596;-72
2022/09/25 06:20:58;;;;;;;4.03;3.77;;;;;;;-142.65;89.54;50170.78;5116145;28;20197;-72
2022/09/25 06:23:25;;;;;;;4.63;3.60;;;;;;;-142.65;89.68;50170.78;5116418;28;20223;-73
2022/09/25 06:25:51;;;;;;;4.57;4.17;;;;;;;-142.65;89.76;50170.78;5116364;28;20537;-72
2022/09/25 06:28:17;;;;;;;5.90;3.83;;;;;;;-142.65;89.65;50172.78;5115975;28;20197;-72
2022/09/25 06:30:44;;;;;;;11.73;3.67;;;;;;;-142.65;89.68;50172.78;5116007;28;20550;-73
2022/09/25 06:33:12;;;;;;;7.87;3.33;;;;;;;-142.65;89.90;50170.78;5115932;28;20192;-72
2022/09/25 06:35:44;;;;;;;3.63;3.43;;;;;;;-142.65;89.82;50168.78;5115848;28;20195;-72
2022/09/25 06:38:11;;;;;;;6.03;3.30;;;;;;;-142.65;89.80;50170.78;5116005;28;20197;-71
2022/09/25 06:40:39;;;;;;;7.03;3.70;;;;;;;;;;5115793;28;20185;-72
2022/09/25 06:43:12;;;;;;;3.17;3.07;;;;;;;-142.65;89.91;50170.78;5115763;28;20591;-72
2022/09/25 06:45:38;;;;;;;3.73;3.40;;;;;;;;;;5115961;28;20186;-72
2022/09/25 06:48:08;;;;;;;6.47;4.20;;;;;;;-142.65;89.47;50170.78;5116378;28;20185;-72
2022/09/25 06:50:40;;;;;;;5.93;3.27;;;;;;;-142.65;89.37;50164.81;5115649;28;20173;-72
2022/09/25 06:53:08;;;;;;;4.70;4.30;;;;;;;-142.65;89.36;50172.78;5115589;28;20178;-72
2022/09/25 06:55:34;;;;;;;4.07;3.93;;;;;;;-142.65;89.21;50176.75;5115811;28;20566;-72
2022/09/25 06:58:01;;;;;;;4.57;3.20;;;;;;;-142.65;89.20;50168.78;5115346;28;20205;-72
2022/09/25 07:00:27;;;;;;;7.90;3.37;;;;;;;-142.65;88.76;50172.78;5115621;28;20183;-72
2022/09/25 07:05:43;;;;;;;3.67;3.37;;;;;;;-142.65;88.48;50170.78;5115902;28;20252;-73
2022/09/25 07:08:12;;;;;;;4.73;4.47;;;;;;;-142.65;87.99;50170.78;5115164;28;20181;-72
2022/09/25 07:10:39;;;;;;;3.13;3.03;;;;;;;-142.65;88.14;50172.78;5115451;28;20186;-72
2022/09/25 07:13:11;;;;;;;6.70;3.63;;;;;;;-142.65;87.99;50168.78;5115202;28;20663;-72
2022/09/25 07:15:37;;;;;;;3.37;3.13;;;;;;;;;;5115633;28;20260;-73
2022/09/25 07:18:04;;;;;;;3.13;2.80;;;;;;;;;;5114881;28;20205;-72
2022/09/25 07:20:31;;;;;;;3.90;2.93;;;;;;;-142.65;87.14;50170.78;5114973;28;20191;-73
2022/09/25 07:23:02;;;;;;;3.73;2.97;;;;;;;;;;5115193;28;20647;-72
2022/09/25 07:25:32;;;;;;;4.67;3.27;;;;;;;-142.65;86.73;50174.75;5115514;28;20211;-72
2022/09/25 07:27:59;;;;;;;6.07;2.73;;;;;;;-142.65;86.57;50168.78;5115100;28;20178;-72
2022/09/25 07:30:28;;;;;;;2.40;2.20;;;;;;;-142.65;86.38;50174.75;5114825;28;20173;-73
2022/09/25 07:32:55;;;;;;;2.60;2.47;;;;;;;-142.65;85.78;50170.78;5114785;28;20181;-72
2022/09/25 07:35:26;;;;;;;3.40;2.60;;;;;;;-142.65;85.47;50172.78;5114783;28;20204;-72
2022/09/25 07:37:55;;;;;;;3.70;2.93;;;;;;;-142.65;85.00;50170.78;5114901;28;20304;-73
2022/09/25 07:40:25;;;;;;;5.03;2.93;;;;;;;-142.65;84.71;50170.78;5114538;28;20196;-72
2022/09/25 07:42:52;;;;;;;6.00;3.13;;;;;;;-142.65;84.87;50170.78;5114901;28;20272;-73
2022/09/25 07:45:18;;;;;;;7.57;2.60;;;;;;;-142.65;84.90;50168.78;5114603;28;20185;-73
2022/09/25 07:47:44;;;;;;;3.03;1.97;;;;;;;;;;5114756;28;20659;-72
2022/09/25 07:50:11;;;;;;;5.03;2.37;;;;;;;-142.65;84.63;50168.78;5114409;28;20211;-72
2022/09/25 07:52:41;;;;;;;4.03;2.33;;;;;;;;;;5114725;28;20193;-72
2022/09/25 07:55:08;;;;;;;1.97;1.97;;;;;;;-142.65;84.24;50174.75;5114357;28;20543;-72
2022/09/25 07:57:34;;;;;;;1.77;1.77;;;;;;;-142.65;84.11;50170.78;5114764;28;20219;-73
2022/09/25 08:00:01;;;;;;;3.70;1.83;;;;;;;;;;5114531;28;20204;-72
2022/09/25 08:02:37;;;;;;;3.53;1.80;;;;;;;;;;5114254;28;20187;-72
2022/09/25 08:05:04;;;;;;;1.67;1.67;;;;;;;-142.65;83.32;50164.81;5114416;28;20554;-73
2022/09/25 08:07:30;;;;;;;16.77;2.23;;;;;;;-142.65;82.16;50170.78;5114355;28;20541;-72
2022/09/25 08:09:56;;;;;;;1.93;1.50;;;;;;;-142.65;82.21;50170.78;5114654;28;20294;-72
2022/09/25 08:12:24;;;;;;;3.33;1.80;;;;;;;-142.65;81.74;50172.78;5114227;28;20722;-72
2022/09/25 08:14:51;;;;;;;2.67;1.80;;;;;;;-142.65;81.58;50162.81;5113476;28;20197;-72
2022/09/25 08:17:18;;;;;;;2.20;1.60;;;;;;;-142.65;81.14;50170.78;5114497;28;20158;-72
2022/09/25 08:19:45;;;;;;;1.97;1.90;;;;;;;;;;5114089;28;20624;-72
2022/09/25 08:22:11;;;;;;;2.57;2.37;;;;;;;-142.65;80.41;50164.81;5114505;28;20177;-72
2022/09/25 08:24:38;;;;;;;7.03;1.63;;;;;;;-142.65;79.80;50162.81;5113881;28;20273;-72
2022/09/25 08:27:06;;;;;;;4.07;1.80;;;;;;;-142.65;79.71;50168.78;5114173;28;20599;-72
2022/09/25 08:29:33;;;;;;;4.63;1.93;;;;;;;-142.65;78.36;50168.78;5113899;28;20208;-72
2022/09/25 08:32:00;;;;;;;1.83;1.40;;;;;;;-142.65;78.28;50168.78;5113945;28;20184;-72
2022/09/25 08:34:26;;;;;;;2.47;1.73;;;;;;;-142.65;78.19;50164.81;5114321;28;20563;-72
2022/09/25 08:37:07;;;;;;;1.37;1.37;;;;;;;;;;5114051;28;20176;-72
2022/09/25 08:39:33;;;;;;;4.33;1.73;;;;;;;-142.65;76.73;50168.78;5113694;28;20201;-72
2022/09/25 08:42:01;;;;;;;3.30;1.83;;;;;;;-142.65;76.12;50174.75;5113743;28;20198;-72
2022/09/25 08:44:37;;;;;;;2.37;1.50;;;;;;;-142.65;75.93;50170.78;5113694;28;20195;-72
2022/09/25 08:50:08;;;;;;;2.13;1.70;;;;;;;;;;5113815;28;20290;-72
2022/09/25 08:52:36;;;;;;;1.10;1.10;;;;;;;;;;5113669;28;20203;-72
2022/09/25 08:55:03;;;;;;;8.33;1.47;;;;;;;-142.65;75.63;50164.81;5113599;28;20187;-72
2022/09/25 08:57:33;;;;;;;1.27;1.17;;;;;;;;;;5113788;28;20215;-72
2022/09/25 09:00:05;;;;;;;1.67;1.57;;;;;;;-142.65;74.81;50168.78;5113586;28;20219;-72
2022/09/25 09:02:42;;;;;;;2.00;1.53;;;;;;;-142.65;73.82;50162.81;5113877;28;20253;-72
2022/09/25 09:05:36;;;;;;;3.13;1.43;;;;;;;-142.65;73.47;50164.81;5114004;28;20177;-72
2022/09/25 09:08:08;;;;;;;1.30;1.30;;;;;;;-142.65;73.45;50162.81;5113967;28;20173;-72
2022/09/25 09:10:40;;;;;;;2.70;1.47;;;;;;;-142.65;73.58;50172.78;5113773;28;20173;-72
2022/09/25 09:13:09;;;;;;;1.30;1.20;;;;;;;;;;5113613;28;20200;-73
2022/09/25 09:15:45;;;;;;;1.90;1.17;;;;;;;-142.65;72.22;50170.78;5113446;28;20208;-73
2022/09/25 09:18:20;;;;;;;3.00;1.27;;;;;;;;;;5113562;28;20220;-72
2022/09/25 09:21:05;;;;;;;1.30;1.20;;;;;;;-142.65;72.06;50164.81;5113391;28;20263;-72
2022/09/25 09:23:42;;;;;;;1.83;1.73;;;;;;;-142.65;70.81;50172.78;5095608;28;20173;-72
2022/09/25 09:26:18;;;;;;;1.60;1.10;;;;;;;;;;5114982;28;20528;-73
2022/09/25 09:29:18;;;;;;;5.13;1.60;;;;;;;-142.65;71.76;50170.78;5117185;28;20284;-72
2022/09/25 09:31:48;;;;;;;1.93;1.57;;;;;;;;;;5047463;28;20680;-72
2022/09/25 09:34:39;;;;;;;1.47;1.47;;;;;;;-142.65;72.00;50170.78;5117088;28;20174;-72
2022/09/25 09:37:30;;;;;;;4.10;1.30;;;;;;;-142.65;71.88;50168.78;5116969;28;20181;-72
2022/09/25 09:40:02;;;;;;;1.53;1.40;;;;;;;-142.65;70.79;50170.78;5099016;28;20257;-72
2022/09/25 09:42:38;;;;;;;1.30;0.93;;;;;;;-142.65;70.39;50172.78;5117526;28;20191;-72
2022/09/25 09:45:10;;;;;;;1.67;1.57;;;;;;;-142.65;70.45;50162.81;5117228;28;20173;-72
2022/09/25 09:47:45;;;;;;;2.43;0.97;;;;;;;;;;5116834;28;20193;-72
2022/09/25 09:50:22;;;;;;;2.43;1.00;;;;;;;;;;5117555;28;20212;-72
2022/09/25 09:53:00;;;;;;;1.23;0.80;;;;;;;-142.65;69.69;50164.81;5116803;28;20181;-72
2022/09/25 09:55:44;;;;;;;2.07;1.20;;;;;;;-142.65;69.50;50172.78;5098975;28;20173;-72
2022/09/25 09:58:22;;;;;;;1.40;1.30;;;;;;;-142.65;69.54;50170.78;5117046;28;20276;-72
2022/09/25 10:00:49;;;;;;;2.20;1.03;;;;;;;;;;5116640;28;20252;-72
2022/09/25 10:03:33;;;;;;;1.60;1.60;;;;;;;-142.65;71.17;50170.78;5116757;28;20189;-73
2022/09/25 10:06:03;;;;;;;1.60;1.43;;;;;;;-142.65;70.63;50174.75;5099030;28;20200;-72
2022/09/25 10:08:30;;;;;;;1.20;1.20;;;;;;;-142.65;70.73;50172.78;5116896;28;20197;-72
2022/09/25 10:10:57;;;;;;;5.30;1.47;;;;;;;-142.65;70.75;50174.75;5116643;28;20197;-72
2022/09/25 10:13:31;;;;;;;1.20;1.13;;;;;;;-142.65;69.52;50170.78;5116618;28;20197;-72
2022/09/25 10:16:02;;;;;;;3.13;1.43;;;;;;;-142.65;69.42;50164.81;5116391;28;20212;-72
2022/09/25 10:18:39;;;;;;;1.13;1.13;;;;;;;;;;5116375;28;20646;-72
2022/09/25 10:21:29;;;;;;;1.10;1.00;;;;;;;-142.65;69.25;50180.75;5116574;28;20184;-72
2022/09/25 10:23:57;;;;;;;1.70;1.00;;;;;;;-142.65;68.64;50168.78;5116262;28;20186;-72
2022/09/25 10:26:41;;;;;;;1.50;1.33;;;;;;;-142.65;68.86;50170.78;5116347;28;20651;-72
2022/09/25 10:29:19;;;;;;;1.20;1.20;;;;;;;-142.65;69.17;50170.78;5116458;28;20213;-72
2022/09/25 10:31:46;;;;;;;1.10;1.00;;;;;;;;;;5116322;28;20540;-72
2022/09/25 10:34:12;;;;;;;9.13;1.20;;;;;;;-142.65;68.41;50117.00;5115934;28;20191;-72
2022/09/25 10:36:41;;;;;;;1.47;1.37;;;;;;;-142.65;67.89;50164.81;5116386;28;20193;-72
2022/09/25 10:39:27;;;;;;;1.07;1.00;;;;;;;;;;5115691;28;20231;-73
2022/09/25 10:42:37;;;;;;;1.10;1.10;;;;;;;-142.65;68.05;50118.97;5116082;28;20223;-72
2022/09/25 10:45:22;;;;;;;1.40;1.30;;;;;;;;;;5116420;28;20260;-72
2022/09/25 10:50:37;;;;;;;4.80;1.30;;;;;;;;;;5115878;28;20264;-72
2022/09/25 10:53:04;;;;;;;2.83;1.57;;;;;;;-142.65;66.67;50168.78;5115588;28;20268;-72
2022/09/25 10:55:36;;;;;;;1.00;1.00;;;;;;;-142.65;65.03;50164.81;5115679;28;20670;-71
2022/09/25 10:58:08;;;;;;;1.00;1.00;;;;;;;;;;5115713;28;20193;-72
2022/09/25 11:00:42;;;;;;;1.07;1.07;;;;;;;-142.65;65.25;50162.81;5115839;28;20254;-72
2022/09/25 11:03:20;;;;;;;1.80;1.20;;;;;;;-142.65;63.93;50170.78;5115685;28;20548;-72
2022/09/25 11:05:53;;;;;;;2.33;1.10;;;;;;;-142.65;62.96;50164.81;5115987;28;20173;-71
2022/09/25 11:08:22;;;;;;;0.80;0.80;;;;;;;;;;5115851;28;20288;-72
2022/09/25 11:10:52;;;;;;;2.00;1.07;;;;;;;-142.65;63.92;50172.78;5115569;28;20175;-71
2022/09/25 11:13:35;;;;;;;1.80;1.23;;;;;;;-142.65;64.89;50170.78;5115250;28;20193;-71
2022/09/25 11:16:08;;;;;;;1.07;1.07;;;;;;;-142.65;65.84;50164.81;5115166;28;20188;-71
2022/09/25 11:19:12;;;;;;;0.97;0.90;;;;;;;-142.65;64.76;50168.78;5114996;28;20216;-72
2022/09/25 11:22:08;;;;;;;1.70;1.00;;;;;;;-142.65;63.21;50174.75;5115022;28;20317;-72
2022/09/25 11:24:43;;;;;;;3.20;1.20;;;;;;;;;;5083934;28;20207;-71
2022/09/25 11:27:26;;;;;;;1.03;1.03;;;;;;;-142.65;63.49;50168.78;5115061;28;20193;-71
2022/09/25 11:30:00;;;;;;;1.20;1.20;;;;;;;-142.65;63.53;50170.78;5114877;28;20209;-71
2022/09/25 11:32:36;;;;;;;1.70;1.03;;;;;;;-142.65;62.50;50168.78;5114796;28;20173;-72
2022/09/25 11:35:11;;;;;;;1.63;1.30;;;;;;;;;;5114995;28;20260;-72
2022/09/25 11:37:59;;;;;;;1.30;1.30;;;;;;;;;;5114922;28;20181;-71
2022/09/25 11:41:13;;;;;;;1.20;1.20;;;;;;;-142.65;62.23;50168.78;5115212;28;20178;-72
2022/09/25 11:43:50;;;;;;;3.97;1.10;;;;;;;;;;5115102;28;20566;-72
2022/09/25 11:46:35;;;;;;;2.97;1.60;;;;;;;;;;5115096;28;20215;-71
2022/09/25 11:49:23;;;;;;;1.67;1.57;;;;;;;-142.65;62.20;50168.78;5114714;28;20211;-71
2022/09/25 11:52:08;;;;;;;2.67;1.70;;;;;;;;;;5114729;28;20256;-72
2022/09/25 11:54:52;;;;;;;1.67;1.57;;;;;;;;;;5114444;28;20193;-72
2022/09/25 11:57:35;;;;;;;2.00;1.10;;;;;;;;;;5114379;28;20239;-71
2022/09/25 12:00:20;;;;;;;2.83;1.77;;;;;;;-142.65;63.34;50164.81;5114163;28;20217;-72
2022/09/25 12:03:07;;;;;;;1.00;1.00;;;;;;;;;;5114815;28;20165;-72
2022/09/25 12:06:18;;;;;;;1.00;1.00;;;;;;;-142.65;63.61;50168.78;5114765;28;20177;-72
2022/09/25 12:09:14;;;;;;;1.27;1.27;;;;;;;-142.65;63.68;50168.78;5114301;28;20203;-71
2022/09/25 12:12:06;;;;;;;1.27;1.17;;;;;;;-142.65;64.12;50162.81;5114581;28;20211;-71
2022/09/25 12:14:51;;;;;;;0.93;0.93;;;;;;;-142.65;63.34;50172.78;5114005;28;20185;-71
2022/09/25 12:17:23;;;;;;;1.90;1.40;;;;;;;;;;5114296;28;20191;-71
2022/09/25 12:19:58;;;;;;;0.90;0.90;;;;;;;;;;5113923;28;20704;-71
2022/09/25 12:22:25;;;;;;;1.13;1.13;;;;;;;-142.65;64.48;50164.81;5114228;28;20183;-71
2022/09/25 12:25:03;;;;;;;1.10;0.97;;;;;;;-142.65;64.38;50170.78;5113888;28;20197;-72
2022/09/25 12:27:55;;;;;;;4.17;1.23;;;;;;;-142.65;64.54;50168.78;5114194;28;20607;-71
2022/09/25 12:30:28;;;;;;;1.33;1.33;;;;;;;-142.65;64.01;50168.78;5114128;28;20542;-71
2022/09/25 12:33:03;;;;;;;1.27;1.27;;;;;;;-142.65;63.25;50164.81;5114113;28;20632;-71
2022/09/25 12:35:48;;;;;;;1.07;1.07;;;;;;;;;;5114063;28;20180;-71
2022/09/25 12:38:21;;;;;;;1.20;1.20;;;;;;;-142.65;61.00;50168.78;5113579;28;20666;-71
2022/09/25 12:40:58;;;;;;;2.03;1.20;;;;;;;-142.65;62.13;50170.78;5114320;28;20188;-71
2022/09/25 12:43:40;;;;;;;1.50;1.20;;;;;;;-142.65;62.49;50162.81;5114018;28;20605;-71
2022/09/25 12:46:24;;;;;;;2.20;1.00;;;;;;;-142.65;62.00;50164.81;5113686;28;20186;-71